sensor_id;sensor_type;location;lat;lon;timestamp;pressure;altitude;pressure_sealevel;temperature;humidity
39267;BME280;24967;51.154;13.812;2022-12-24T00:00:10;98168.81;;;10.41;99.80
39267;BME280;24967;51.154;13.812;2022-12-24T00:02:36;98161.38;;;10.37;100.00
39267;BME280;24967;51.154;13.812;2022-12-24T00:05:03;98157.72;;;10.67;98.96
39267;BME280;24967;51.154;13.812;2022-12-24T00:07:29;98161.84;;;10.55;99.04
39267;BME280;24967;51.154;13.812;2022-12-24T00:09:56;98170.09;;;10.60;98.53
39267;BME280;24967;51.154;13.812;2022-12-24T00:12:23;98170.84;;;10.54;99.22
39267;BME280;24967;51.154;13.812;2022-12-24T00:14:50;98190.16;;;10.63;97.91
39267;BME280;24967;51.154;13.812;2022-12-24T00:17:17;98189.16;;;10.49;98.85
39267;BME280;24967;51.154;13.812;2022-12-24T00:19:44;98175.78;;;10.57;98.16
39267;BME280;24967;51.154;13.812;2022-12-24T00:22:10;98182.66;;;10.66;97.33
39267;BME280;24967;51.154;13.812;2022-12-24T00:24:36;98192.19;;;10.61;97.14
39267;BME280;24967;51.154;13.812;2022-12-24T00:27:03;98196.66;;;10.75;96.18
39267;BME280;24967;51.154;13.812;2022-12-24T00:29:30;98190.78;;;10.80;95.05
39267;BME280;24967;51.154;13.812;2022-12-24T00:31:56;98189.31;;;10.77;94.53
39267;BME280;24967;51.154;13.812;2022-12-24T00:34:24;98186.78;;;10.69;94.31
39267;BME280;24967;51.154;13.812;2022-12-24T00:36:50;98200.06;;;10.54;94.80
39267;BME280;24967;51.154;13.812;2022-12-24T00:39:17;98194.00;;;10.45;94.59
39267;BME280;24967;51.154;13.812;2022-12-24T00:41:43;98202.44;;;10.49;95.52
39267;BME280;24967;51.154;13.812;2022-12-24T00:44:09;98196.66;;;10.45;96.84
39267;BME280;24967;51.154;13.812;2022-12-24T00:46:36;98191.25;;;10.39;96.45
39267;BME280;24967;51.154;13.812;2022-12-24T00:49:03;98205.53;;;10.38;95.31
39267;BME280;24967;51.154;13.812;2022-12-24T00:51:31;98205.16;;;10.41;95.74
39267;BME280;24967;51.154;13.812;2022-12-24T00:53:57;98215.25;;;10.30;96.15
39267;BME280;24967;51.154;13.812;2022-12-24T00:56:24;98221.03;;;10.49;95.22
39267;BME280;24967;51.154;13.812;2022-12-24T00:58:50;98228.47;;;10.68;94.37
39267;BME280;24967;51.154;13.812;2022-12-24T01:01:17;98230.94;;;10.55;94.68
39267;BME280;24967;51.154;13.812;2022-12-24T01:03:43;98230.03;;;10.63;94.32
39267;BME280;24967;51.154;13.812;2022-12-24T01:06:11;98245.69;;;10.58;94.80
39267;BME280;24967;51.154;13.812;2022-12-24T01:08:38;98243.78;;;10.66;94.14
39267;BME280;24967;51.154;13.812;2022-12-24T01:11:04;98256.88;;;10.68;93.77
39267;BME280;24967;51.154;13.812;2022-12-24T01:13:31;98246.50;;;10.58;94.72
39267;BME280;24967;51.154;13.812;2022-12-24T01:15:57;98260.72;;;10.50;95.37
39267;BME280;24967;51.154;13.812;2022-12-24T01:18:24;98262.47;;;10.73;94.47
39267;BME280;24967;51.154;13.812;2022-12-24T01:20:54;98261.28;;;10.61;94.14
39267;BME280;24967;51.154;13.812;2022-12-24T01:23:20;98264.00;;;10.67;93.98
39267;BME280;24967;51.154;13.812;2022-12-24T01:25:48;98265.78;;;10.75;92.99
39267;BME280;24967;51.154;13.812;2022-12-24T01:28:14;98270.69;;;10.48;92.92
39267;BME280;24967;51.154;13.812;2022-12-24T01:30:41;98265.75;;;10.60;93.20
39267;BME280;24967;51.154;13.812;2022-12-24T01:33:07;98269.34;;;10.67;92.57
39267;BME280;24967;51.154;13.812;2022-12-24T01:35:34;98266.69;;;10.67;92.65
39267;BME280;24967;51.154;13.812;2022-12-24T01:38:00;98266.78;;;10.59;93.43
39267;BME280;24967;51.154;13.812;2022-12-24T01:40:26;98274.56;;;10.61;93.30
39267;BME280;24967;51.154;13.812;2022-12-24T01:43:14;98277.94;;;10.54;93.65
39267;BME280;24967;51.154;13.812;2022-12-24T01:45:52;98292.69;;;10.57;92.47
39267;BME280;24967;51.154;13.812;2022-12-24T01:48:24;98276.63;;;10.36;93.61
39267;BME280;24967;51.154;13.812;2022-12-24T01:50:54;98294.63;;;10.63;92.50
39267;BME280;24967;51.154;13.812;2022-12-24T01:53:22;98305.13;;;10.42;92.34
39267;BME280;24967;51.154;13.812;2022-12-24T01:55:49;98300.38;;;10.52;91.91
39267;BME280;24967;51.154;13.812;2022-12-24T01:58:17;98293.59;;;10.49;92.21
39267;BME280;24967;51.154;13.812;2022-12-24T02:00:44;98304.34;;;10.56;90.95
39267;BME280;24967;51.154;13.812;2022-12-24T02:03:10;98299.09;;;10.48;91.16
39267;BME280;24967;51.154;13.812;2022-12-24T02:05:38;98300.44;;;10.44;91.56
39267;BME280;24967;51.154;13.812;2022-12-24T02:08:08;98313.31;;;10.55;90.84
39267;BME280;24967;51.154;13.812;2022-12-24T02:10:35;98311.44;;;10.41;90.85
39267;BME280;24967;51.154;13.812;2022-12-24T02:13:01;98308.59;;;10.42;90.79
39267;BME280;24967;51.154;13.812;2022-12-24T02:15:33;98315.41;;;10.45;90.83
39267;BME280;24967;51.154;13.812;2022-12-24T02:18:03;98313.75;;;10.59;89.59
39267;BME280;24967;51.154;13.812;2022-12-24T02:20:43;98313.19;;;10.48;90.60
39267;BME280;24967;51.154;13.812;2022-12-24T02:23:20;98328.38;;;10.77;89.33
39267;BME280;24967;51.154;13.812;2022-12-24T02:25:57;98326.13;;;10.51;89.63
39267;BME280;24967;51.154;13.812;2022-12-24T02:28:35;98324.78;;;10.70;88.77
39267;BME280;24967;51.154;13.812;2022-12-24T02:31:10;98339.63;;;10.65;88.82
39267;BME280;24967;51.154;13.812;2022-12-24T02:33:40;98340.00;;;10.76;88.29
39267;BME280;24967;51.154;13.812;2022-12-24T02:36:10;98338.19;;;10.77;87.67
39267;BME280;24967;51.154;13.812;2022-12-24T02:38:40;98341.38;;;10.72;87.83
39267;BME280;24967;51.154;13.812;2022-12-24T02:41:11;98348.97;;;10.61;87.93
39267;BME280;24967;51.154;13.812;2022-12-24T02:43:40;98353.75;;;10.80;87.59
39267;BME280;24967;51.154;13.812;2022-12-24T02:46:09;98354.38;;;10.67;87.46
39267;BME280;24967;51.154;13.812;2022-12-24T02:48:38;98367.78;;;10.74;87.17
39267;BME280;24967;51.154;13.812;2022-12-24T02:51:07;98359.34;;;10.70;87.20
39267;BME280;24967;51.154;13.812;2022-12-24T02:53:34;98370.19;;;10.84;86.93
39267;BME280;24967;51.154;13.812;2022-12-24T02:56:11;98366.47;;;10.93;86.52
39267;BME280;24967;51.154;13.812;2022-12-24T02:58:41;98374.66;;;10.83;86.55
39267;BME280;24967;51.154;13.812;2022-12-24T03:01:13;98376.31;;;10.69;87.13
39267;BME280;24967;51.154;13.812;2022-12-24T03:03:48;98377.94;;;10.70;87.72
39267;BME280;24967;51.154;13.812;2022-12-24T03:06:21;98381.34;;;10.79;87.40
39267;BME280;24967;51.154;13.812;2022-12-24T03:08:52;98388.47;;;10.64;87.92
39267;BME280;24967;51.154;13.812;2022-12-24T03:11:20;98385.56;;;10.73;88.54
39267;BME280;24967;51.154;13.812;2022-12-24T03:13:46;98392.91;;;10.48;89.63
39267;BME280;24967;51.154;13.812;2022-12-24T03:16:14;98381.69;;;10.61;89.05
39267;BME280;24967;51.154;13.812;2022-12-24T03:18:42;98392.84;;;10.57;89.41
39267;BME280;24967;51.154;13.812;2022-12-24T03:21:11;98397.09;;;10.43;90.85
39267;BME280;24967;51.154;13.812;2022-12-24T03:23:39;98405.06;;;10.66;89.66
39267;BME280;24967;51.154;13.812;2022-12-24T03:26:06;98406.91;;;10.42;91.45
39267;BME280;24967;51.154;13.812;2022-12-24T03:28:35;98409.91;;;10.39;92.76
39267;BME280;24967;51.154;13.812;2022-12-24T03:31:03;98400.72;;;10.50;92.79
39267;BME280;24967;51.154;13.812;2022-12-24T03:33:29;98407.63;;;10.36;93.44
39267;BME280;24967;51.154;13.812;2022-12-24T03:35:56;98410.53;;;10.18;95.40
39267;BME280;24967;51.154;13.812;2022-12-24T03:38:23;98405.47;;;10.31;94.92
39267;BME280;24967;51.154;13.812;2022-12-24T03:40:50;98414.56;;;10.37;94.79
39267;BME280;24967;51.154;13.812;2022-12-24T03:43:16;98418.75;;;10.31;94.67
39267;BME280;24967;51.154;13.812;2022-12-24T03:45:42;98415.81;;;10.26;93.83
39267;BME280;24967;51.154;13.812;2022-12-24T03:48:09;98414.13;;;10.25;94.95
39267;BME280;24967;51.154;13.812;2022-12-24T03:50:35;98424.38;;;10.37;94.31
39267;BME280;24967;51.154;13.812;2022-12-24T03:53:01;98415.47;;;10.52;93.37
39267;BME280;24967;51.154;13.812;2022-12-24T03:55:29;98424.16;;;10.15;94.90
39267;BME280;24967;51.154;13.812;2022-12-24T03:57:55;98433.47;;;10.11;95.52
39267;BME280;24967;51.154;13.812;2022-12-24T04:00:21;98428.16;;;10.11;95.80
39267;BME280;24967;51.154;13.812;2022-12-24T04:02:48;98426.47;;;10.18;95.50
39267;BME280;24967;51.154;13.812;2022-12-24T04:05:15;98427.50;;;10.09;95.70
39267;BME280;24967;51.154;13.812;2022-12-24T04:07:42;98428.91;;;9.97;95.62
39267;BME280;24967;51.154;13.812;2022-12-24T04:10:09;98436.16;;;10.03;95.22
39267;BME280;24967;51.154;13.812;2022-12-24T04:12:37;98447.81;;;10.02;94.89
39267;BME280;24967;51.154;13.812;2022-12-24T04:15:04;98447.56;;;10.12;93.61
39267;BME280;24967;51.154;13.812;2022-12-24T04:17:30;98444.88;;;10.20;92.88
39267;BME280;24967;51.154;13.812;2022-12-24T04:19:57;98447.38;;;10.13;91.96
39267;BME280;24967;51.154;13.812;2022-12-24T04:22:23;98448.19;;;10.22;91.24
39267;BME280;24967;51.154;13.812;2022-12-24T04:24:49;98453.47;;;10.22;90.32
39267;BME280;24967;51.154;13.812;2022-12-24T04:27:16;98454.50;;;10.21;90.70
39267;BME280;24967;51.154;13.812;2022-12-24T04:29:43;98450.94;;;10.37;89.64
39267;BME280;24967;51.154;13.812;2022-12-24T04:32:10;98462.28;;;10.30;88.48
39267;BME280;24967;51.154;13.812;2022-12-24T04:34:36;98464.09;;;10.30;87.92
39267;BME280;24967;51.154;13.812;2022-12-24T04:37:02;98465.41;;;10.34;87.90
39267;BME280;24967;51.154;13.812;2022-12-24T04:39:29;98469.06;;;10.33;87.03
39267;BME280;24967;51.154;13.812;2022-12-24T04:41:55;98470.66;;;10.42;86.19
39267;BME280;24967;51.154;13.812;2022-12-24T04:44:21;98480.72;;;10.32;86.29
39267;BME280;24967;51.154;13.812;2022-12-24T04:46:49;98478.53;;;10.36;85.64
39267;BME280;24967;51.154;13.812;2022-12-24T04:49:15;98489.09;;;10.44;85.36
39267;BME280;24967;51.154;13.812;2022-12-24T04:51:41;98486.44;;;10.44;84.74
39267;BME280;24967;51.154;13.812;2022-12-24T04:54:08;98493.06;;;10.48;83.62
39267;BME280;24967;51.154;13.812;2022-12-24T04:56:34;98490.91;;;10.43;84.19
39267;BME280;24967;51.154;13.812;2022-12-24T04:59:01;98489.69;;;10.54;83.69
39267;BME280;24967;51.154;13.812;2022-12-24T05:01:28;98498.38;;;10.48;83.13
39267;BME280;24967;51.154;13.812;2022-12-24T05:03:56;98515.56;;;10.60;82.99
39267;BME280;24967;51.154;13.812;2022-12-24T05:06:23;98516.28;;;10.54;82.89
39267;BME280;24967;51.154;13.812;2022-12-24T05:08:52;98526.50;;;10.65;82.32
39267;BME280;24967;51.154;13.812;2022-12-24T05:11:18;98517.84;;;10.71;82.36
39267;BME280;24967;51.154;13.812;2022-12-24T05:16:21;98516.63;;;10.51;82.52
39267;BME280;24967;51.154;13.812;2022-12-24T05:18:48;98531.09;;;10.48;82.96
39267;BME280;24967;51.154;13.812;2022-12-24T05:21:16;98544.88;;;10.44;83.02
39267;BME280;24967;51.154;13.812;2022-12-24T05:23:43;98547.28;;;10.22;85.15
39267;BME280;24967;51.154;13.812;2022-12-24T05:26:30;98536.22;;;10.11;86.26
39267;BME280;24967;51.154;13.812;2022-12-24T05:28:57;98556.47;;;10.12;86.91
39267;BME280;24967;51.154;13.812;2022-12-24T05:31:24;98567.06;;;10.20;86.97
39267;BME280;24967;51.154;13.812;2022-12-24T05:33:51;98562.91;;;10.17;87.82
39267;BME280;24967;51.154;13.812;2022-12-24T05:36:20;98563.22;;;10.22;87.19
39267;BME280;24967;51.154;13.812;2022-12-24T05:38:46;98576.00;;;10.19;87.51
39267;BME280;24967;51.154;13.812;2022-12-24T05:41:13;98572.06;;;10.06;89.21
39267;BME280;24967;51.154;13.812;2022-12-24T05:43:39;98566.41;;;10.09;90.34
39267;BME280;24967;51.154;13.812;2022-12-24T05:46:06;98569.13;;;9.93;90.00
39267;BME280;24967;51.154;13.812;2022-12-24T05:48:33;98572.94;;;9.99;89.71
39267;BME280;24967;51.154;13.812;2022-12-24T05:51:02;98578.72;;;10.02;88.76
39267;BME280;24967;51.154;13.812;2022-12-24T05:53:30;98577.56;;;10.05;88.82
39267;BME280;24967;51.154;13.812;2022-12-24T05:56:01;98591.94;;;10.19;87.80
39267;BME280;24967;51.154;13.812;2022-12-24T05:58:27;98596.28;;;10.20;86.89
39267;BME280;24967;51.154;13.812;2022-12-24T06:00:53;98589.34;;;10.11;85.91
39267;BME280;24967;51.154;13.812;2022-12-24T06:03:20;98587.84;;;10.08;85.10
39267;BME280;24967;51.154;13.812;2022-12-24T06:05:46;98594.44;;;10.20;85.14
39267;BME280;24967;51.154;13.812;2022-12-24T06:08:12;98602.25;;;10.30;83.84
39267;BME280;24967;51.154;13.812;2022-12-24T06:10:40;98607.88;;;10.27;83.39
39267;BME280;24967;51.154;13.812;2022-12-24T06:13:06;98610.69;;;10.25;83.34
39267;BME280;24967;51.154;13.812;2022-12-24T06:15:34;98623.66;;;10.28;82.71
39267;BME280;24967;51.154;13.812;2022-12-24T06:18:00;98629.25;;;10.42;82.43
39267;BME280;24967;51.154;13.812;2022-12-24T06:20:27;98633.75;;;10.25;82.14
39267;BME280;24967;51.154;13.812;2022-12-24T06:22:54;98637.25;;;10.34;82.07
39267;BME280;24967;51.154;13.812;2022-12-24T06:25:20;98637.13;;;10.27;82.34
39267;BME280;24967;51.154;13.812;2022-12-24T06:27:47;98649.75;;;10.17;82.44
39267;BME280;24967;51.154;13.812;2022-12-24T06:30:14;98644.91;;;10.12;82.79
39267;BME280;24967;51.154;13.812;2022-12-24T06:32:40;98657.84;;;10.31;82.41
39267;BME280;24967;51.154;13.812;2022-12-24T06:35:06;98660.84;;;10.20;82.18
39267;BME280;24967;51.154;13.812;2022-12-24T06:37:33;98668.81;;;10.12;82.16
39267;BME280;24967;51.154;13.812;2022-12-24T06:39:59;98666.16;;;10.12;82.02
39267;BME280;24967;51.154;13.812;2022-12-24T06:42:26;98657.50;;;10.18;81.86
39267;BME280;24967;51.154;13.812;2022-12-24T06:44:53;98673.47;;;10.10;81.09
39267;BME280;24967;51.154;13.812;2022-12-24T06:47:20;98671.81;;;10.17;81.27
39267;BME280;24967;51.154;13.812;2022-12-24T06:49:46;98675.44;;;10.16;80.10
39267;BME280;24967;51.154;13.812;2022-12-24T06:52:13;98688.22;;;10.37;79.85
39267;BME280;24967;51.154;13.812;2022-12-24T06:54:39;98693.34;;;10.22;79.49
39267;BME280;24967;51.154;13.812;2022-12-24T06:57:05;98696.53;;;10.18;79.51
39267;BME280;24967;51.154;13.812;2022-12-24T06:59:32;98697.03;;;10.13;78.51
39267;BME280;24967;51.154;13.812;2022-12-24T07:01:59;98705.81;;;10.22;78.21
39267;BME280;24967;51.154;13.812;2022-12-24T07:04:26;98708.84;;;10.11;77.82
39267;BME280;24967;51.154;13.812;2022-12-24T07:06:52;98718.78;;;10.17;76.60
39267;BME280;24967;51.154;13.812;2022-12-24T07:09:18;98718.28;;;10.05;76.55
39267;BME280;24967;51.154;13.812;2022-12-24T07:11:45;98719.47;;;10.27;75.68
39267;BME280;24967;51.154;13.812;2022-12-24T07:14:11;98722.59;;;10.30;75.63
39267;BME280;24967;51.154;13.812;2022-12-24T07:16:38;98729.56;;;10.31;75.42
39267;BME280;24967;51.154;13.812;2022-12-24T07:19:05;98737.88;;;10.45;74.38
39267;BME280;24967;51.154;13.812;2022-12-24T07:21:32;98734.88;;;10.31;74.72
39267;BME280;24967;51.154;13.812;2022-12-24T07:23:58;98740.88;;;10.17;74.96
39267;BME280;24967;51.154;13.812;2022-12-24T07:26:24;98737.19;;;10.18;74.39
39267;BME280;24967;51.154;13.812;2022-12-24T07:28:50;98739.84;;;10.10;74.10
39267;BME280;24967;51.154;13.812;2022-12-24T07:31:17;98754.97;;;10.09;74.44
39267;BME280;24967;51.154;13.812;2022-12-24T07:33:43;98751.47;;;10.25;74.23
39267;BME280;24967;51.154;13.812;2022-12-24T07:36:13;98757.97;;;10.31;73.60
39267;BME280;24967;51.154;13.812;2022-12-24T07:38:40;98760.13;;;10.27;73.84
39267;BME280;24967;51.154;13.812;2022-12-24T07:41:07;98768.75;;;10.21;73.61
39267;BME280;24967;51.154;13.812;2022-12-24T07:43:33;98769.75;;;10.20;73.07
39267;BME280;24967;51.154;13.812;2022-12-24T07:45:59;98791.97;;;10.19;73.49
39267;BME280;24967;51.154;13.812;2022-12-24T07:48:26;98788.66;;;10.25;72.60
39267;BME280;24967;51.154;13.812;2022-12-24T07:50:53;98803.13;;;10.23;73.27
39267;BME280;24967;51.154;13.812;2022-12-24T07:53:21;98781.03;;;10.06;73.42
39267;BME280;24967;51.154;13.812;2022-12-24T07:55:48;98792.50;;;10.23;72.81
39267;BME280;24967;51.154;13.812;2022-12-24T07:58:14;98797.78;;;10.06;73.22
39267;BME280;24967;51.154;13.812;2022-12-24T08:00:41;98796.63;;;10.01;73.21
39267;BME280;24967;51.154;13.812;2022-12-24T08:03:08;98798.31;;;10.26;72.54
39267;BME280;24967;51.154;13.812;2022-12-24T08:05:40;98804.75;;;10.24;72.55
39267;BME280;24967;51.154;13.812;2022-12-24T08:08:07;98800.97;;;10.26;72.76
39267;BME280;24967;51.154;13.812;2022-12-24T08:10:36;98811.75;;;10.17;72.25
39267;BME280;24967;51.154;13.812;2022-12-24T08:13:03;98803.94;;;10.15;72.80
39267;BME280;24967;51.154;13.812;2022-12-24T08:15:29;98813.38;;;9.93;72.88
39267;BME280;24967;51.154;13.812;2022-12-24T08:17:55;98816.00;;;9.85;73.55
39267;BME280;24967;51.154;13.812;2022-12-24T08:20:22;98826.31;;;9.96;73.83
39267;BME280;24967;51.154;13.812;2022-12-24T08:22:48;98824.16;;;10.16;74.06
39267;BME280;24967;51.154;13.812;2022-12-24T08:25:15;98827.50;;;10.18;74.19
39267;BME280;24967;51.154;13.812;2022-12-24T08:27:42;98837.25;;;10.01;73.99
39267;BME280;24967;51.154;13.812;2022-12-24T08:30:09;98834.28;;;9.96;74.52
39267;BME280;24967;51.154;13.812;2022-12-24T08:32:36;98833.47;;;10.04;75.15
39267;BME280;24967;51.154;13.812;2022-12-24T08:35:02;98846.41;;;9.91;75.92
39267;BME280;24967;51.154;13.812;2022-12-24T08:37:28;98854.16;;;9.76;76.55
39267;BME280;24967;51.154;13.812;2022-12-24T08:39:55;98857.13;;;9.73;77.38
39267;BME280;24967;51.154;13.812;2022-12-24T08:42:21;98857.66;;;9.84;76.98
39267;BME280;24967;51.154;13.812;2022-12-24T08:44:49;98849.31;;;9.71;77.28
39267;BME280;24967;51.154;13.812;2022-12-24T08:47:15;98870.56;;;9.71;77.50
39267;BME280;24967;51.154;13.812;2022-12-24T08:49:41;98873.94;;;9.90;77.24
39267;BME280;24967;51.154;13.812;2022-12-24T08:52:08;98872.28;;;9.97;76.72
39267;BME280;24967;51.154;13.812;2022-12-24T08:54:34;98884.41;;;9.99;76.48
39267;BME280;24967;51.154;13.812;2022-12-24T08:57:00;98887.06;;;9.99;76.37
39267;BME280;24967;51.154;13.812;2022-12-24T08:59:27;98906.84;;;10.05;76.41
39267;BME280;24967;51.154;13.812;2022-12-24T09:01:54;98901.84;;;10.10;75.82
39267;BME280;24967;51.154;13.812;2022-12-24T09:04:21;98898.38;;;10.09;74.48
39267;BME280;24967;51.154;13.812;2022-12-24T09:06:47;98908.97;;;9.93;75.62
39267;BME280;24967;51.154;13.812;2022-12-24T09:09:13;98909.44;;;9.80;75.75
39267;BME280;24967;51.154;13.812;2022-12-24T09:11:39;98912.16;;;10.05;75.55
39267;BME280;24967;51.154;13.812;2022-12-24T09:14:06;98921.41;;;10.01;75.05
39267;BME280;24967;51.154;13.812;2022-12-24T09:16:32;98914.28;;;10.01;74.89
39267;BME280;24967;51.154;13.812;2022-12-24T09:19:00;98918.63;;;10.02;74.13
39267;BME280;24967;51.154;13.812;2022-12-24T09:21:26;98921.59;;;10.07;74.34
39267;BME280;24967;51.154;13.812;2022-12-24T09:23:52;98928.91;;;10.05;73.82
39267;BME280;24967;51.154;13.812;2022-12-24T09:26:20;98935.41;;;10.11;73.59
39267;BME280;24967;51.154;13.812;2022-12-24T09:28:46;98940.88;;;10.18;73.59
39267;BME280;24967;51.154;13.812;2022-12-24T09:31:13;98948.81;;;10.09;73.58
39267;BME280;24967;51.154;13.812;2022-12-24T09:33:40;98944.44;;;10.26;72.51
39267;BME280;24967;51.154;13.812;2022-12-24T09:36:08;98952.25;;;10.36;72.82
39267;BME280;24967;51.154;13.812;2022-12-24T09:38:34;98956.56;;;10.37;72.30
39267;BME280;24967;51.154;13.812;2022-12-24T09:41:09;98965.28;;;10.21;72.12
39267;BME280;24967;51.154;13.812;2022-12-24T09:43:36;98966.19;;;10.30;71.95
39267;BME280;24967;51.154;13.812;2022-12-24T09:46:04;98976.63;;;10.31;71.35
39267;BME280;24967;51.154;13.812;2022-12-24T09:48:32;98971.19;;;10.49;71.99
39267;BME280;24967;51.154;13.812;2022-12-24T09:51:00;98979.84;;;10.60;71.23
39267;BME280;24967;51.154;13.812;2022-12-24T09:53:32;98977.19;;;10.60;71.55
39267;BME280;24967;51.154;13.812;2022-12-24T09:56:01;98972.88;;;10.50;71.25
39267;BME280;24967;51.154;13.812;2022-12-24T09:58:29;98990.81;;;10.57;71.34
39267;BME280;24967;51.154;13.812;2022-12-24T10:00:58;98980.22;;;10.22;70.62
39267;BME280;24967;51.154;13.812;2022-12-24T10:03:25;98996.09;;;10.40;71.32
39267;BME280;24967;51.154;13.812;2022-12-24T10:05:55;99001.22;;;10.34;71.21
39267;BME280;24967;51.154;13.812;2022-12-24T10:08:27;98995.75;;;10.43;71.45
39267;BME280;24967;51.154;13.812;2022-12-24T10:10:59;98999.78;;;10.47;71.32
39267;BME280;24967;51.154;13.812;2022-12-24T10:13:32;98988.13;;;10.48;70.97
39267;BME280;24967;51.154;13.812;2022-12-24T10:16:02;98999.63;;;10.73;71.23
39267;BME280;24967;51.154;13.812;2022-12-24T10:18:34;99002.47;;;10.72;70.40
39267;BME280;24967;51.154;13.812;2022-12-24T10:21:05;99013.28;;;10.78;69.56
39267;BME280;24967;51.154;13.812;2022-12-24T10:23:37;98998.00;;;10.81;70.25
39267;BME280;24967;51.154;13.812;2022-12-24T10:26:10;99015.75;;;10.88;70.11
39267;BME280;24967;51.154;13.812;2022-12-24T10:28:39;99014.13;;;10.95;69.78
39267;BME280;24967;51.154;13.812;2022-12-24T10:31:08;99014.59;;;10.83;70.48
39267;BME280;24967;51.154;13.812;2022-12-24T10:33:35;99014.78;;;10.97;69.96
39267;BME280;24967;51.154;13.812;2022-12-24T10:36:03;99019.25;;;11.13;70.11
39267;BME280;24967;51.154;13.812;2022-12-24T10:38:31;99023.41;;;11.16;68.93
39267;BME280;24967;51.154;13.812;2022-12-24T10:40:58;99030.88;;;11.04;70.10
39267;BME280;24967;51.154;13.812;2022-12-24T10:43:28;99028.59;;;11.17;69.62
39267;BME280;24967;51.154;13.812;2022-12-24T10:45:56;99023.91;;;11.19;69.83
39267;BME280;24967;51.154;13.812;2022-12-24T10:48:26;99026.25;;;11.22;69.04
39267;BME280;24967;51.154;13.812;2022-12-24T10:50:55;99022.94;;;11.20;69.90
39267;BME280;24967;51.154;13.812;2022-12-24T10:53:24;99032.22;;;11.16;68.40
39267;BME280;24967;51.154;13.812;2022-12-24T10:55:59;99028.91;;;11.39;68.62
39267;BME280;24967;51.154;13.812;2022-12-24T10:58:27;99038.88;;;11.53;68.08
39267;BME280;24967;51.154;13.812;2022-12-24T11:00:54;99039.22;;;11.42;68.12
39267;BME280;24967;51.154;13.812;2022-12-24T11:03:21;99030.53;;;11.48;68.22
39267;BME280;24967;51.154;13.812;2022-12-24T11:05:57;99045.53;;;11.24;68.31
39267;BME280;24967;51.154;13.812;2022-12-24T11:08:24;99058.81;;;11.00;69.04
39267;BME280;24967;51.154;13.812;2022-12-24T11:10:53;99055.66;;;10.96;69.60
39267;BME280;24967;51.154;13.812;2022-12-24T11:13:21;99055.50;;;11.06;68.97
39267;BME280;24967;51.154;13.812;2022-12-24T11:15:50;99058.34;;;11.05;69.54
39267;BME280;24967;51.154;13.812;2022-12-24T11:18:16;99057.44;;;10.63;70.86
39267;BME280;24967;51.154;13.812;2022-12-24T11:20:43;99058.09;;;10.57;71.60
39267;BME280;24967;51.154;13.812;2022-12-24T11:23:14;99064.91;;;10.68;71.49
39267;BME280;24967;51.154;13.812;2022-12-24T11:25:41;99064.09;;;10.59;71.76
39267;BME280;24967;51.154;13.812;2022-12-24T11:28:15;99087.16;;;10.50;72.83
39267;BME280;24967;51.154;13.812;2022-12-24T11:30:48;99085.84;;;10.71;72.34
39267;BME280;24967;51.154;13.812;2022-12-24T11:33:21;99084.38;;;10.68;72.24
39267;BME280;24967;51.154;13.812;2022-12-24T11:35:52;99083.84;;;10.57;72.46
39267;BME280;24967;51.154;13.812;2022-12-24T11:38:20;99086.16;;;10.51;73.07
39267;BME280;24967;51.154;13.812;2022-12-24T11:40:47;99087.53;;;10.80;72.68
39267;BME280;24967;51.154;13.812;2022-12-24T11:43:15;99095.88;;;10.85;72.49
39267;BME280;24967;51.154;13.812;2022-12-24T11:45:46;99102.72;;;11.04;71.55
39267;BME280;24967;51.154;13.812;2022-12-24T11:48:23;99102.38;;;10.91;71.81
39267;BME280;24967;51.154;13.812;2022-12-24T11:50:54;99101.22;;;10.93;72.27
39267;BME280;24967;51.154;13.812;2022-12-24T11:53:22;99102.22;;;10.92;72.36
39267;BME280;24967;51.154;13.812;2022-12-24T11:55:49;99106.47;;;10.69;73.48
39267;BME280;24967;51.154;13.812;2022-12-24T11:58:19;99111.00;;;10.85;73.43
39267;BME280;24967;51.154;13.812;2022-12-24T12:00:47;99120.94;;;10.83;73.29
39267;BME280;24967;51.154;13.812;2022-12-24T12:03:20;99117.63;;;10.89;74.20
39267;BME280;24967;51.154;13.812;2022-12-24T12:05:50;99128.34;;;11.21;72.87
39267;BME280;24967;51.154;13.812;2022-12-24T12:08:17;99127.88;;;11.26;72.92
39267;BME280;24967;51.154;13.812;2022-12-24T12:10:45;99125.66;;;11.05;73.40
39267;BME280;24967;51.154;13.812;2022-12-24T12:13:12;99122.84;;;11.07;73.29
39267;BME280;24967;51.154;13.812;2022-12-24T12:15:40;99122.34;;;11.28;73.30
39267;BME280;24967;51.154;13.812;2022-12-24T12:18:10;99124.84;;;11.13;73.22
39267;BME280;24967;51.154;13.812;2022-12-24T12:20:38;99121.69;;;11.09;73.99
39267;BME280;24967;51.154;13.812;2022-12-24T12:23:09;99126.66;;;10.96;74.57
39267;BME280;24967;51.154;13.812;2022-12-24T12:25:40;99128.31;;;11.13;74.42
39267;BME280;24967;51.154;13.812;2022-12-24T12:28:11;99128.47;;;11.04;74.50
39267;BME280;24967;51.154;13.812;2022-12-24T12:30:40;99130.97;;;11.13;74.72
39267;BME280;24967;51.154;13.812;2022-12-24T12:33:10;99128.31;;;10.97;74.66
39267;BME280;24967;51.154;13.812;2022-12-24T12:35:42;99121.66;;;11.01;75.37
39267;BME280;24967;51.154;13.812;2022-12-24T12:38:12;99130.81;;;10.98;75.25
39267;BME280;24967;51.154;13.812;2022-12-24T12:40:45;99130.47;;;11.10;74.83
39267;BME280;24967;51.154;13.812;2022-12-24T12:43:20;99129.50;;;11.11;75.08
39267;BME280;24967;51.154;13.812;2022-12-24T12:45:51;99129.97;;;10.90;75.71
39267;BME280;24967;51.154;13.812;2022-12-24T12:48:23;99131.81;;;11.06;75.74
39267;BME280;24967;51.154;13.812;2022-12-24T12:50:53;99136.97;;;11.15;76.09
39267;BME280;24967;51.154;13.812;2022-12-24T12:56:09;99137.94;;;10.90;76.75
39267;BME280;24967;51.154;13.812;2022-12-24T12:58:42;99148.66;;;11.22;75.59